createdAt,value
2018-08-24T00:00:06.545Z,97366.22
2018-08-24T00:01:12.121Z,97368.30
2018-08-24T00:02:17.915Z,97370.03
2018-08-24T00:03:23.636Z,97371.29
2018-08-24T00:04:28.485Z,97375.45
2018-08-24T00:05:33.305Z,97372.91
2018-08-24T00:06:40.717Z,97369.54
2018-08-24T00:07:46.808Z,97367.94
2018-08-24T00:08:51.572Z,97378.14
2018-08-24T00:09:56.281Z,97374.75
2018-08-24T00:11:01.032Z,97369.22
2018-08-24T00:12:05.986Z,97364.61
2018-08-24T00:13:12.025Z,97371.00
2018-08-24T00:14:17.781Z,97372.09
2018-08-24T00:15:27.724Z,97369.54
2018-08-24T00:16:39.666Z,97375.62
2018-08-24T00:17:49.794Z,97370.37
2018-08-24T00:18:57.674Z,97369.40
2018-08-24T00:20:05.318Z,97367.16
2018-08-24T00:21:11.544Z,97362.17
2018-08-24T00:22:18.892Z,97364.55
2018-08-24T00:23:23.507Z,97360.41
2018-08-24T00:24:28.089Z,97363.59
2018-08-24T00:25:33.297Z,97365.34
2018-08-24T00:26:39.517Z,97358.16
2018-08-24T00:27:44.463Z,97364.37
2018-08-24T00:28:52.580Z,97362.30
2018-08-24T00:29:57.563Z,97358.00
2018-08-24T00:31:05.032Z,97357.20
2018-08-24T00:32:10.272Z,97360.39
2018-08-24T00:33:15.194Z,97359.43
2018-08-24T00:34:20.688Z,97367.05
2018-08-24T00:35:26.169Z,97358.13
2018-08-24T00:36:31.715Z,97356.20
2018-08-24T00:37:36.331Z,97362.05
2018-08-24T00:38:43.138Z,97351.39
2018-08-24T00:39:48.294Z,97356.48
2018-08-24T00:40:58.573Z,97348.67
2018-08-24T00:42:03.450Z,97345.02
2018-08-24T00:43:09.227Z,97344.76
2018-08-24T00:44:15.744Z,97345.08
2018-08-24T00:45:22.528Z,97339.98
2018-08-24T00:46:27.786Z,97345.41
2018-08-24T00:47:32.486Z,97338.39
2018-08-24T00:48:37.222Z,97339.19
2018-08-24T00:49:41.990Z,97336.80
2018-08-24T00:50:46.688Z,97334.88
2018-08-24T00:51:51.426Z,97337.22
2018-08-24T00:52:56.697Z,97332.28
2018-08-24T00:54:01.410Z,97337.89
2018-08-24T00:55:06.110Z,97335.83
2018-08-24T00:56:11.774Z,97333.08
2018-08-24T00:57:16.496Z,97335.45
2018-08-24T00:58:21.253Z,97334.56
2018-08-24T00:59:26.757Z,97340.00
2018-08-24T01:00:37.338Z,97334.08
2018-08-24T01:01:41.935Z,97341.24
2018-08-24T01:02:46.498Z,97340.45
2018-08-24T01:03:51.038Z,97336.58
2018-08-24T01:04:55.746Z,97344.84
2018-08-24T01:06:00.807Z,97339.27
2018-08-24T01:07:10.681Z,97341.01
2018-08-24T01:08:16.671Z,97343.23
2018-08-24T01:09:21.271Z,97341.16
2018-08-24T01:10:26.692Z,97346.88
2018-08-24T01:11:36.503Z,97343.54
2018-08-24T01:12:41.889Z,97341.14
2018-08-24T01:13:51.134Z,97338.12
2018-08-24T01:14:55.856Z,97333.22
2018-08-24T01:16:11.161Z,97338.77
2018-08-24T01:17:21.316Z,97329.31
2018-08-24T01:18:31.112Z,97332.91
2018-08-24T01:19:35.848Z,97330.52
2018-08-24T01:20:44.640Z,97330.42
2018-08-24T01:21:49.436Z,97326.23
2018-08-24T01:22:55.159Z,97332.27
2018-08-24T01:24:00.336Z,97325.56
2018-08-24T01:25:05.105Z,97327.14
2018-08-24T01:26:10.564Z,97329.53
2018-08-24T01:27:15.332Z,97333.08
2018-08-24T01:28:22.327Z,97330.17
2018-08-24T01:29:28.512Z,97332.22
2018-08-24T01:30:33.795Z,97336.17
2018-08-24T01:31:39.178Z,97333.25
2018-08-24T01:32:44.716Z,97341.03
2018-08-24T01:33:49.821Z,97332.43
2018-08-24T01:34:54.709Z,97337.99
2018-08-24T01:35:59.481Z,97335.42
2018-08-24T01:37:04.918Z,97337.02
2018-08-24T01:38:09.769Z,97336.09
2018-08-24T01:39:14.537Z,97331.61
2018-08-24T01:40:19.318Z,97331.95
2018-08-24T01:41:24.113Z,97331.18
2018-08-24T01:42:29.365Z,97332.08
2018-08-24T01:43:34.672Z,97332.53
2018-08-24T01:44:39.470Z,97319.61
2018-08-24T01:45:44.189Z,97328.39
2018-08-24T01:46:48.965Z,97324.92
2018-08-24T01:47:53.691Z,97322.40
2018-08-24T01:48:58.961Z,97329.52
2018-08-24T01:50:03.733Z,97317.56
2018-08-24T01:51:08.479Z,97321.41
2018-08-24T01:52:13.247Z,97317.03
2018-08-24T01:53:18.981Z,97321.38
2018-08-24T01:54:23.761Z,97331.30
2018-08-24T01:55:29.006Z,97323.27
2018-08-24T01:56:33.749Z,97323.04
2018-08-24T01:57:38.521Z,97320.50
2018-08-24T01:58:43.285Z,97317.78
2018-08-24T01:59:49.228Z,97320.80
2018-08-24T02:00:55.301Z,97313.94
2018-08-24T02:02:01.655Z,97313.28
2018-08-24T02:03:07.425Z,97314.41
2018-08-24T02:04:12.161Z,97319.50
2018-08-24T02:05:16.909Z,97323.61
2018-08-24T02:06:21.557Z,97317.55
2018-08-24T02:07:26.477Z,97314.86
2018-08-24T02:08:32.216Z,97313.61
2018-08-24T02:09:37.960Z,97310.42
2018-08-24T02:10:42.704Z,97302.78
2018-08-24T02:11:48.438Z,97314.26
2018-08-24T02:12:58.065Z,97310.42
2018-08-24T02:14:08.281Z,97309.80
2018-08-24T02:15:13.034Z,97320.44
2018-08-24T02:16:18.596Z,97325.23
2018-08-24T02:17:28.270Z,97305.00
2018-08-24T02:18:38.135Z,97305.16
2018-08-24T02:19:48.240Z,97317.40
2018-08-24T02:20:58.418Z,97319.64
2018-08-24T02:22:07.976Z,97325.00
2018-08-24T02:23:13.540Z,97320.06
2018-08-24T02:24:18.210Z,97318.97
2018-08-24T02:25:23.329Z,97321.72
2018-08-24T02:26:28.465Z,97316.70
2018-08-24T02:27:33.132Z,97320.20
2018-08-24T02:28:37.736Z,97314.11
2018-08-24T02:29:42.442Z,97319.34
2018-08-24T02:30:47.110Z,97319.45
2018-08-24T02:31:52.178Z,97321.10
2018-08-24T02:32:57.205Z,97322.09
2018-08-24T02:34:01.860Z,97324.72
2018-08-24T02:35:07.446Z,97328.52
2018-08-24T02:36:12.176Z,97313.08
2018-08-24T02:37:16.948Z,97316.86
2018-08-24T02:38:21.717Z,97315.52
2018-08-24T02:39:26.904Z,97321.20
2018-08-24T02:40:31.964Z,97325.73
2018-08-24T02:41:36.757Z,97312.36
2018-08-24T02:42:41.391Z,97316.77
2018-08-24T02:43:46.070Z,97313.96
2018-08-24T02:44:50.730Z,97322.72
2018-08-24T02:45:55.820Z,97326.86
2018-08-24T02:47:00.454Z,97314.86
2018-08-24T02:48:06.865Z,97315.77
2018-08-24T02:49:13.135Z,97314.99
2018-08-24T02:50:17.838Z,97320.41
2018-08-24T02:51:22.487Z,97318.52
2018-08-24T02:52:27.581Z,97325.13
2018-08-24T02:53:32.353Z,97313.14
2018-08-24T02:54:37.105Z,97303.82
2018-08-24T02:55:41.730Z,97312.95
2018-08-24T02:56:46.483Z,97310.41
2018-08-24T02:57:51.225Z,97309.27
2018-08-24T02:58:56.456Z,97310.03
2018-08-24T03:00:01.230Z,97312.10
2018-08-24T03:01:05.945Z,97308.97
2018-08-24T03:02:10.681Z,97300.75
2018-08-24T03:03:15.463Z,97302.67
2018-08-24T03:04:20.182Z,97301.67
2018-08-24T03:05:31.297Z,97311.55
2018-08-24T03:06:35.990Z,97305.78
2018-08-24T03:07:40.780Z,97297.02
2018-08-24T03:08:45.628Z,97298.95
2018-08-24T03:09:50.352Z,97303.53
2018-08-24T03:10:55.127Z,97302.11
2018-08-24T03:12:00.233Z,97288.89
2018-08-24T03:13:04.980Z,97303.34
2018-08-24T03:14:09.780Z,97303.37
2018-08-24T03:15:14.508Z,97306.50
2018-08-24T03:16:19.294Z,97312.97
2018-08-24T03:17:29.392Z,97310.14
2018-08-24T03:18:34.125Z,97309.81
2018-08-24T03:19:38.881Z,97313.19
2018-08-24T03:20:43.685Z,97311.80
2018-08-24T03:21:48.519Z,97317.31
2018-08-24T03:22:53.394Z,97315.19
2018-08-24T03:23:58.655Z,97316.97
2018-08-24T03:25:03.433Z,97314.11
2018-08-24T03:26:08.182Z,97325.44
2018-08-24T03:27:13.032Z,97323.98
2018-08-24T03:28:17.820Z,97329.62
2018-08-24T03:29:22.602Z,97330.21
2018-08-24T03:30:27.775Z,97327.61
2018-08-24T03:31:35.782Z,97319.86
2018-08-24T03:32:40.556Z,97314.12
2018-08-24T03:33:45.293Z,97313.95
2018-08-24T03:34:50.081Z,97319.16
2018-08-24T03:35:54.871Z,97327.20
2018-08-24T03:37:00.280Z,97314.41
2018-08-24T03:38:05.567Z,97315.86
2018-08-24T03:39:11.783Z,97306.59
2018-08-24T03:40:16.525Z,97317.27
2018-08-24T03:41:21.248Z,97326.95
2018-08-24T03:42:26.006Z,97322.97
2018-08-24T03:43:31.135Z,97328.18
2018-08-24T03:44:35.912Z,97323.16
2018-08-24T03:45:40.727Z,97322.70
2018-08-24T03:46:45.488Z,97332.10
2018-08-24T03:47:50.275Z,97326.56
2018-08-24T03:48:54.994Z,97327.03
2018-08-24T03:50:00.274Z,97334.52
2018-08-24T03:51:05.053Z,97328.59
2018-08-24T03:52:09.981Z,97328.32
2018-08-24T03:53:14.822Z,97345.66
2018-08-24T03:54:21.116Z,97336.06
2018-08-24T03:55:26.304Z,97336.94
2018-08-24T03:56:31.064Z,97333.04
2018-08-24T03:57:35.908Z,97330.12
2018-08-24T03:58:41.149Z,97329.18
2018-08-24T03:59:46.760Z,97337.39
2018-08-24T04:00:55.953Z,97329.77
2018-08-24T04:02:01.272Z,97329.58
2018-08-24T04:03:06.057Z,97337.32
2018-08-24T04:04:10.858Z,97333.25
2018-08-24T04:05:16.021Z,97323.52
2018-08-24T04:06:20.797Z,97332.55
2018-08-24T04:07:25.941Z,97326.31
2018-08-24T04:08:30.810Z,97331.98
2018-08-24T04:09:35.593Z,97325.98
2018-08-24T04:10:40.326Z,97330.24
2018-08-24T04:11:45.212Z,97333.38
2018-08-24T04:12:49.888Z,97331.19
2018-08-24T04:13:54.941Z,97326.31
2018-08-24T04:14:59.643Z,97328.19
2018-08-24T04:16:04.292Z,97330.84
2018-08-24T04:17:13.841Z,97336.58
2018-08-24T04:18:18.524Z,97331.38
2018-08-24T04:19:28.326Z,97339.85
2018-08-24T04:20:33.034Z,97337.98
2018-08-24T04:21:37.652Z,97340.67
2018-08-24T04:22:42.310Z,97339.67
2018-08-24T04:23:46.916Z,97341.52
2018-08-24T04:24:51.597Z,97341.95
2018-08-24T04:25:56.688Z,97331.41
2018-08-24T04:27:01.356Z,97333.45
2018-08-24T04:28:06.051Z,97333.81
2018-08-24T04:29:10.774Z,97335.80
2018-08-24T04:30:15.412Z,97340.86
2018-08-24T04:31:20.105Z,97342.98
2018-08-24T04:32:25.209Z,97342.91
2018-08-24T04:33:29.805Z,97337.72
2018-08-24T04:34:34.432Z,97343.91
2018-08-24T04:35:39.085Z,97345.14
2018-08-24T04:36:43.768Z,97353.61
2018-08-24T04:37:48.422Z,97341.13
2018-08-24T04:38:53.428Z,97346.39
2018-08-24T04:39:58.065Z,97355.31
2018-08-24T04:41:02.673Z,97344.88
2018-08-24T04:42:07.315Z,97349.98
2018-08-24T04:43:12.111Z,97345.64
2018-08-24T04:44:16.830Z,97346.26
2018-08-24T04:45:22.095Z,97346.66
2018-08-24T04:46:31.749Z,97351.34
2018-08-24T04:47:36.483Z,97354.59
2018-08-24T04:48:43.088Z,97356.26
2018-08-24T04:49:47.965Z,97358.98
2018-08-24T04:50:53.519Z,97356.58
2018-08-24T04:51:58.280Z,97361.66
2018-08-24T04:53:03.260Z,97356.19
2018-08-24T04:54:08.063Z,97359.52
2018-08-24T04:55:12.779Z,97350.27
2018-08-24T04:56:17.564Z,97359.19
2018-08-24T04:57:22.929Z,97363.27
2018-08-24T04:58:27.646Z,97372.91
2018-08-24T04:59:32.515Z,97369.17
2018-08-24T05:00:37.292Z,97367.80
2018-08-24T05:01:42.161Z,97366.90
2018-08-24T05:02:46.976Z,97372.77
2018-08-24T05:03:52.161Z,97362.64
2018-08-24T05:04:57.312Z,97368.42
2018-08-24T05:06:02.206Z,97371.25
2018-08-24T05:07:07.770Z,97369.91
2018-08-24T05:08:12.689Z,97371.08
2018-08-24T05:09:18.578Z,97365.64
2018-08-24T05:10:23.979Z,97369.98
2018-08-24T05:11:28.700Z,97376.70
2018-08-24T05:12:33.432Z,97371.39
2018-08-24T05:13:38.304Z,97367.68
2018-08-24T05:14:43.068Z,97365.85
2018-08-24T05:15:48.773Z,97376.73
2018-08-24T05:16:57.216Z,97377.77
2018-08-24T05:18:02.454Z,97387.43
2018-08-24T05:19:10.051Z,97400.02
2018-08-24T05:20:14.845Z,97393.14
2018-08-24T05:21:20.089Z,97399.89
2018-08-24T05:22:25.355Z,97404.29
2018-08-24T05:23:30.785Z,97406.34
2018-08-24T05:24:35.503Z,97403.73
2018-08-24T05:25:41.204Z,97397.31
2018-08-24T05:26:45.981Z,97409.02
2018-08-24T05:27:51.274Z,97407.97
2018-08-24T05:28:55.981Z,97411.23
2018-08-24T05:30:01.070Z,97412.75
2018-08-24T05:33:18.171Z,97399.98
2018-08-24T05:34:23.277Z,97398.18
2018-08-24T05:35:28.023Z,97406.39
2018-08-24T05:36:33.053Z,97404.61
2018-08-24T05:37:37.843Z,97407.79
2018-08-24T05:38:42.541Z,97401.53
2018-08-24T05:39:47.965Z,97408.80
2018-08-24T05:40:52.779Z,97405.52
2018-08-24T05:41:57.473Z,97403.86
2018-08-24T05:43:02.849Z,97393.52
2018-08-24T05:44:07.523Z,97405.53
2018-08-24T05:45:12.337Z,97409.39
2018-08-24T05:46:17.436Z,97403.19
2018-08-24T05:47:22.247Z,97409.91
2018-08-24T05:48:27.041Z,97411.74
2018-08-24T05:49:32.743Z,97406.68
2018-08-24T05:50:38.102Z,97406.05
2018-08-24T05:51:42.900Z,97397.93
2018-08-24T05:52:47.822Z,97409.17
2018-08-24T05:53:52.485Z,97416.08
2018-08-24T05:54:57.105Z,97408.27
2018-08-24T05:56:03.029Z,97420.05
2018-08-24T05:57:09.146Z,97424.08
2018-08-24T05:58:13.749Z,97412.39
2018-08-24T05:59:18.444Z,97422.73
2018-08-24T06:00:28.256Z,97420.43
2018-08-24T06:01:33.059Z,97420.52
2018-08-24T06:02:38.179Z,97432.19
2018-08-24T06:03:42.848Z,97436.75
2018-08-24T06:04:47.538Z,97433.37
2018-08-24T06:05:57.120Z,97432.27
2018-08-24T06:07:02.576Z,97438.43
2018-08-24T06:08:07.518Z,97440.96
2018-08-24T06:09:15.432Z,97438.63
2018-08-24T06:10:20.642Z,97447.98
2018-08-24T06:11:25.289Z,97439.74
2018-08-24T06:12:32.017Z,97445.61
2018-08-24T06:13:37.416Z,97441.86
2018-08-24T06:14:42.491Z,97453.96
2018-08-24T06:15:50.450Z,97448.86
2018-08-24T06:17:00.219Z,97448.48
2018-08-24T06:18:05.660Z,97447.41
2018-08-24T06:19:10.795Z,97440.84
2018-08-24T06:20:15.573Z,97438.14
2018-08-24T06:21:20.412Z,97444.13
2018-08-24T06:22:25.693Z,97436.33
2018-08-24T06:23:30.576Z,97437.69
2018-08-24T06:24:35.372Z,97436.17
2018-08-24T06:25:40.188Z,97437.64
2018-08-24T06:26:44.985Z,97429.73
2018-08-24T06:27:49.791Z,97430.18
2018-08-24T06:28:55.092Z,97412.03
2018-08-24T06:30:00.873Z,97409.87
2018-08-24T06:31:06.012Z,97411.01
2018-08-24T06:32:11.550Z,97425.30
2018-08-24T06:33:16.355Z,97421.65
2018-08-24T06:34:21.241Z,97416.75
2018-08-24T06:35:26.473Z,97416.83
2018-08-24T06:36:31.111Z,97413.42
2018-08-24T06:37:35.781Z,97422.94
2018-08-24T06:38:40.565Z,97417.98
2018-08-24T06:39:45.290Z,97423.58
2018-08-24T06:40:49.943Z,97415.89
2018-08-24T06:41:55.293Z,97428.30
2018-08-24T06:43:00.756Z,97436.30
2018-08-24T06:44:05.465Z,97447.00
2018-08-24T06:45:10.282Z,97450.44
2018-08-24T06:46:15.597Z,97453.05
2018-08-24T06:47:21.626Z,97454.23
2018-08-24T06:48:27.035Z,97456.14
2018-08-24T06:49:31.729Z,97443.70
2018-08-24T06:50:36.454Z,97453.50
2018-08-24T06:51:41.209Z,97445.78
2018-08-24T06:52:46.696Z,97440.14
2018-08-24T06:53:51.650Z,97431.59
2018-08-24T06:54:56.819Z,97419.38
2018-08-24T06:56:01.660Z,97421.23
2018-08-24T06:57:07.065Z,97422.76
2018-08-24T06:58:11.970Z,97424.97
2018-08-24T06:59:19.047Z,97436.84
2018-08-24T07:00:29.580Z,97446.21
2018-08-24T07:01:38.859Z,97440.47
2018-08-24T07:02:45.439Z,97417.82
2018-08-24T07:03:50.063Z,97428.28
2018-08-24T07:04:55.298Z,97422.76
2018-08-24T07:06:02.110Z,97443.72
2018-08-24T07:07:07.574Z,97447.69
2018-08-24T07:08:13.817Z,97450.00
2018-08-24T07:09:22.026Z,97444.39
2018-08-24T07:10:27.645Z,97440.27
2018-08-24T07:11:33.990Z,97429.91
2018-08-24T07:12:38.726Z,97436.97
2018-08-24T07:13:44.124Z,97437.10
2018-08-24T07:14:48.740Z,97438.27
2018-08-24T07:15:53.613Z,97439.04
2018-08-24T07:17:01.243Z,97441.16
2018-08-24T07:18:06.251Z,97442.42
2018-08-24T07:19:11.082Z,97441.98
2018-08-24T07:20:16.407Z,97446.84
2018-08-24T07:21:21.421Z,97448.36
2018-08-24T07:22:27.187Z,97446.63
2018-08-24T07:23:32.973Z,97445.48
2018-08-24T07:24:40.641Z,97433.50
2018-08-24T07:25:45.423Z,97439.81
2018-08-24T07:26:50.747Z,97451.20
2018-08-24T07:27:55.550Z,97435.66
2018-08-24T07:29:00.241Z,97449.16
2018-08-24T07:30:05.181Z,97446.83
2018-08-24T07:31:11.381Z,97444.48
2018-08-24T07:32:16.707Z,97446.58
2018-08-24T07:33:22.057Z,97434.17
2018-08-24T07:34:27.145Z,97438.70
2018-08-24T07:35:31.900Z,97459.20
2018-08-24T07:36:38.938Z,97457.05
2018-08-24T07:37:43.881Z,97452.03
2018-08-24T07:38:49.573Z,97453.98
2018-08-24T07:39:54.768Z,97467.52
2018-08-24T07:40:59.456Z,97454.34
2018-08-24T07:42:06.966Z,97455.32
2018-08-24T07:43:11.737Z,97459.62
2018-08-24T07:44:18.276Z,97477.00
2018-08-24T07:45:25.526Z,97479.31
2018-08-24T07:46:30.571Z,97465.39
2018-08-24T07:47:35.449Z,97459.70
2018-08-24T07:48:40.800Z,97467.73
2018-08-24T07:49:46.239Z,97475.04
2018-08-24T07:50:54.085Z,97481.13
2018-08-24T07:52:00.476Z,97473.28
2018-08-24T07:53:05.422Z,97480.22
2018-08-24T07:54:10.264Z,97471.27
2018-08-24T07:55:15.075Z,97478.25
2018-08-24T07:56:19.737Z,97475.19
2018-08-24T07:57:24.846Z,97489.02
2018-08-24T07:58:45.914Z,97485.13
2018-08-24T07:59:54.163Z,97481.50
2018-08-24T08:00:58.856Z,97493.06
2018-08-24T08:02:04.024Z,97487.85
2018-08-24T08:03:09.740Z,97487.97
2018-08-24T08:04:14.820Z,97488.05
2018-08-24T08:05:20.249Z,97487.27
2018-08-24T08:06:24.967Z,97487.98
2018-08-24T08:07:29.734Z,97477.33
2018-08-24T08:08:34.657Z,97482.09
2018-08-24T08:09:40.193Z,97481.30
2018-08-24T08:10:50.162Z,97478.86
2018-08-24T08:11:57.148Z,97486.27
2018-08-24T08:13:03.293Z,97492.40
2018-08-24T08:14:10.305Z,97478.66
2018-08-24T08:15:17.386Z,97482.98
2018-08-24T08:16:23.241Z,97481.34
2018-08-24T08:17:32.064Z,97484.73
2018-08-24T08:18:38.578Z,97479.53
2018-08-24T08:19:43.328Z,97487.80
2018-08-24T08:20:48.816Z,97485.47
2018-08-24T08:21:56.413Z,97477.79
2018-08-24T08:23:05.030Z,97477.06
2018-08-24T08:24:12.948Z,97486.11
2018-08-24T08:25:17.636Z,97480.39
2018-08-24T08:26:24.658Z,97478.58
2018-08-24T08:27:31.445Z,97483.38
2018-08-24T08:28:36.150Z,97487.08
2018-08-24T08:29:45.984Z,97485.20
2018-08-24T08:30:51.369Z,97490.72
2018-08-24T08:31:56.753Z,97475.10
2018-08-24T08:33:01.827Z,97470.02
2018-08-24T08:34:07.354Z,97467.94
2018-08-24T08:35:11.998Z,97476.02
2018-08-24T08:36:17.482Z,97478.91
2018-08-24T08:37:23.267Z,97474.17
2018-08-24T08:38:27.961Z,97476.53
2018-08-24T08:39:32.711Z,97482.92
2018-08-24T08:40:38.074Z,97472.33
2018-08-24T08:41:43.193Z,97472.11
2018-08-24T08:42:48.389Z,97470.62
2018-08-24T08:43:53.877Z,97475.45
2018-08-24T08:44:58.796Z,97468.64
2018-08-24T08:46:04.451Z,97466.30
2018-08-24T08:47:09.319Z,97468.68
2018-08-24T08:48:14.358Z,97469.89
2018-08-24T08:49:20.596Z,97497.17
2018-08-24T08:50:25.935Z,97485.68
2018-08-24T08:51:30.661Z,97468.89
2018-08-24T08:52:36.287Z,97459.67
2018-08-24T08:53:41.047Z,97487.76
2018-08-24T08:54:46.272Z,97478.05
2018-08-24T08:55:51.466Z,97475.23
2018-08-24T08:56:57.148Z,97471.05
2018-08-24T08:58:01.818Z,97470.09
2018-08-24T08:59:06.473Z,97474.91
2018-08-24T09:00:11.912Z,97462.91
2018-08-24T09:01:16.890Z,97473.77
2018-08-24T09:02:23.243Z,97475.05
2018-08-24T09:03:27.928Z,97466.51
2018-08-24T09:04:32.683Z,97476.13
2018-08-24T09:05:40.537Z,97472.38
2018-08-24T09:06:45.475Z,97479.59
2018-08-24T09:07:50.180Z,97479.45
2018-08-24T09:08:55.386Z,97488.67
2018-08-24T09:10:00.184Z,97327.94
2018-08-24T09:11:04.909Z,97487.08
2018-08-24T09:12:11.243Z,97489.50
2018-08-24T09:13:16.544Z,97489.02
2018-08-24T09:14:23.504Z,97497.14
2018-08-24T09:15:28.788Z,97494.64
2018-08-24T09:16:33.512Z,97508.38
2018-08-24T09:17:44.052Z,97488.53
2018-08-24T09:18:53.644Z,97492.20
2018-08-24T09:20:03.168Z,97490.38
2018-08-24T09:21:12.930Z,97506.42
2018-08-24T09:22:22.599Z,97507.70
2018-08-24T09:23:32.184Z,97497.42
2018-08-24T09:24:41.913Z,97498.89
2018-08-24T09:25:51.630Z,97500.13
2018-08-24T09:27:02.512Z,97498.58
2018-08-24T09:28:12.209Z,97498.95
2018-08-24T09:29:22.353Z,97491.48
2018-08-24T09:30:33.372Z,97494.14
2018-08-24T09:31:39.633Z,97502.34
2018-08-24T09:32:44.565Z,97498.16
2018-08-24T09:33:49.594Z,97510.41
2018-08-24T09:34:54.430Z,97514.67
2018-08-24T09:36:03.337Z,97511.03
2018-08-24T09:37:14.488Z,97500.59
2018-08-24T09:38:20.190Z,97489.16
2018-08-24T09:39:29.125Z,97496.92
2018-08-24T09:40:39.414Z,97503.14
2018-08-24T09:41:44.348Z,97496.82
2018-08-24T09:42:49.065Z,97498.19
2018-08-24T09:43:57.909Z,97500.30
2018-08-24T09:45:03.452Z,97520.94
2018-08-24T09:46:08.717Z,97501.95
2018-08-24T09:47:19.843Z,97508.14
2018-08-24T09:48:33.761Z,97496.77
2018-08-24T09:49:41.345Z,97502.77
2018-08-24T09:50:50.986Z,97506.28
2018-08-24T09:51:55.690Z,97507.54
2018-08-24T09:53:06.952Z,97497.89
2018-08-24T09:54:11.953Z,97505.55
2018-08-24T09:55:16.868Z,97507.44
2018-08-24T09:56:21.716Z,97509.70
2018-08-24T09:57:27.279Z,97506.68
2018-08-24T09:58:34.309Z,97492.88
2018-08-24T09:59:40.112Z,97515.84
2018-08-24T10:00:49.684Z,97507.94
2018-08-24T10:01:59.335Z,97499.64
2018-08-24T10:03:09.578Z,97496.41
2018-08-24T10:04:20.028Z,97496.05
2018-08-24T10:05:30.232Z,97496.18
2018-08-24T10:06:39.923Z,97500.80
2018-08-24T10:07:49.670Z,97489.52
2018-08-24T10:08:54.397Z,97465.58
2018-08-24T10:09:59.240Z,97477.47
2018-08-24T10:11:04.484Z,97469.95
2018-08-24T10:12:09.280Z,97474.34
2018-08-24T10:13:15.606Z,97485.94
2018-08-24T10:14:20.866Z,97487.53
2018-08-24T10:15:26.097Z,97487.25
2018-08-24T10:16:31.380Z,97486.71
2018-08-24T10:17:36.496Z,97490.63
2018-08-24T10:18:42.684Z,97489.94
2018-08-24T10:19:49.622Z,97484.77
2018-08-24T10:20:55.305Z,97491.19
2018-08-24T10:22:00.137Z,97487.70
2018-08-24T10:23:05.907Z,97490.18
2018-08-24T10:24:13.309Z,97488.25
2018-08-24T10:25:18.144Z,97480.47
2018-08-24T10:26:23.418Z,97480.52
2018-08-24T10:27:28.846Z,97479.23
2018-08-24T10:28:34.272Z,97480.79
2018-08-24T10:29:41.570Z,97488.66
2018-08-24T10:32:22.233Z,97485.37
2018-08-24T10:33:30.139Z,97493.59
2018-08-24T10:34:35.986Z,97491.73
2018-08-24T10:35:42.426Z,97488.23
2018-08-24T10:36:47.282Z,97500.60
2018-08-24T10:37:53.863Z,97474.64
2018-08-24T10:39:02.510Z,97483.19
2018-08-24T10:40:09.226Z,97485.76
2018-08-24T10:41:14.397Z,97480.74
2018-08-24T10:42:19.240Z,97488.30
2018-08-24T10:43:25.117Z,97485.69
2018-08-24T10:44:30.354Z,97484.47
2018-08-24T10:45:36.510Z,97478.97
2018-08-24T10:46:41.995Z,97482.56
2018-08-24T10:47:47.161Z,97460.16
2018-08-24T10:48:56.321Z,97485.02
2018-08-24T10:50:02.725Z,97476.00
2018-08-24T10:51:07.496Z,97469.93
2018-08-24T10:52:12.812Z,97471.85
2018-08-24T10:53:18.434Z,97478.58
2018-08-24T10:54:27.591Z,97486.81
2018-08-24T10:55:32.669Z,97476.20
2018-08-24T10:56:38.622Z,97473.69
2018-08-24T10:57:44.282Z,97478.91
2018-08-24T10:58:48.949Z,97481.27
2018-08-24T10:59:53.653Z,97481.11
2018-08-24T11:00:59.547Z,97480.55
2018-08-24T11:02:04.272Z,97491.63
2018-08-24T11:03:09.981Z,97475.93
2018-08-24T11:04:14.664Z,97461.66
2018-08-24T11:05:22.149Z,97493.54
2018-08-24T11:06:27.892Z,97494.88
2018-08-24T11:07:32.612Z,97501.16
2018-08-24T11:08:39.772Z,97506.66
2018-08-24T11:09:47.443Z,97510.73
2018-08-24T11:10:52.158Z,97518.81
2018-08-24T11:11:57.522Z,97521.20
2018-08-24T11:13:02.323Z,97524.30
2018-08-24T11:14:07.330Z,97517.97
2018-08-24T11:15:12.075Z,97536.72
2018-08-24T11:16:17.114Z,97530.55
2018-08-24T11:17:21.843Z,97526.40
2018-08-24T11:18:26.492Z,97538.44
2018-08-24T11:19:31.410Z,97532.91
2018-08-24T11:20:36.906Z,97530.94
2018-08-24T11:21:46.635Z,97529.97
2018-08-24T11:22:53.895Z,97538.76
2018-08-24T11:24:00.781Z,97537.05
2018-08-24T11:25:05.823Z,97537.45
2018-08-24T11:26:10.713Z,97533.41
2018-08-24T11:27:15.671Z,97530.43
2018-08-24T11:28:20.523Z,97539.80
2018-08-24T11:29:26.821Z,97538.50
2018-08-24T11:30:32.407Z,97538.44
2018-08-24T11:31:38.400Z,97537.33
2018-08-24T11:32:43.253Z,97533.66
2018-08-24T11:33:49.741Z,97538.59
2018-08-24T11:34:55.847Z,97540.27
2018-08-24T11:36:01.642Z,97539.95
2018-08-24T11:37:06.272Z,97535.23
2018-08-24T11:38:11.837Z,97535.34
2018-08-24T11:39:16.737Z,97532.84
2018-08-24T11:40:22.407Z,97533.08
2018-08-24T11:41:28.230Z,97527.52
2018-08-24T11:42:34.018Z,97524.56
2018-08-24T11:43:39.816Z,97531.37
2018-08-24T11:44:46.635Z,97531.19
2018-08-24T11:45:52.330Z,97525.87
2018-08-24T11:46:59.441Z,97524.16
2018-08-24T11:48:05.037Z,97529.94
2018-08-24T11:49:09.929Z,97530.70
2018-08-24T11:50:15.512Z,97519.52
2018-08-24T11:51:22.574Z,97522.99
2018-08-24T11:52:27.355Z,97519.09
2018-08-24T11:53:33.226Z,97519.86
2018-08-24T11:54:39.325Z,97523.03
2018-08-24T11:55:45.440Z,97522.20
2018-08-24T11:56:51.153Z,97526.94
2018-08-24T11:57:56.554Z,97522.55
2018-08-24T11:59:01.579Z,97504.86
2018-08-24T12:00:07.454Z,97521.36
2018-08-24T12:01:13.221Z,97522.70
2018-08-24T12:02:18.050Z,97526.52
2018-08-24T12:03:23.401Z,97529.48
2018-08-24T12:04:28.060Z,97528.66
2018-08-24T12:05:32.994Z,97534.88
2018-08-24T12:06:38.534Z,97533.58
2018-08-24T12:07:44.038Z,97532.22
2018-08-24T12:08:49.784Z,97533.09
2018-08-24T12:09:54.472Z,97525.63
2018-08-24T12:10:59.422Z,97531.20
2018-08-24T12:12:04.327Z,97529.92
2018-08-24T12:13:09.631Z,97527.05
2018-08-24T12:14:15.373Z,97524.22
2018-08-24T12:15:20.430Z,97522.27
2018-08-24T12:16:25.410Z,97533.91
2018-08-24T12:17:37.543Z,97531.06
2018-08-24T12:18:44.036Z,97531.45
2018-08-24T12:19:48.792Z,97535.42
2018-08-24T12:20:54.396Z,97527.92
2018-08-24T12:22:00.661Z,97529.09
2018-08-24T12:23:05.466Z,97538.63
2018-08-24T12:24:11.468Z,97534.66
2018-08-24T12:25:17.686Z,97534.08
2018-08-24T12:26:23.170Z,97537.08
2018-08-24T12:27:27.884Z,97523.87
2018-08-24T12:28:34.103Z,97542.75
2018-08-24T12:29:38.790Z,97527.61
2018-08-24T12:30:45.258Z,97532.85
2018-08-24T12:31:50.344Z,97513.70
2018-08-24T12:32:56.156Z,97521.34
2018-08-24T12:34:01.773Z,97527.84
2018-08-24T12:35:07.414Z,97528.73
2018-08-24T12:36:13.490Z,97523.18
2018-08-24T12:37:21.185Z,97534.84
2018-08-24T12:38:27.966Z,97520.36
2018-08-24T12:39:33.297Z,97526.14
2018-08-24T12:40:38.150Z,97506.99
2018-08-24T12:41:43.399Z,97517.55
2018-08-24T12:42:49.768Z,97522.19
2018-08-24T12:43:55.573Z,97518.66
2018-08-24T12:45:01.263Z,97522.34
2018-08-24T12:46:06.291Z,97521.44
2018-08-24T12:47:13.627Z,97530.38
2018-08-24T12:48:21.087Z,97522.17
2018-08-24T12:49:25.959Z,97512.86
2018-08-24T12:50:31.581Z,97518.83
2018-08-24T12:51:38.980Z,97514.42
2018-08-24T12:52:45.546Z,97509.05
2018-08-24T12:53:51.462Z,97521.95
2018-08-24T12:54:58.275Z,97521.45
2018-08-24T12:56:03.509Z,97531.22